Delphos, Iowa
Current Conditions -  °F | °C
As of 9:13 PM on Friday 19 Dec 2014 (Local Time) from KLWD Reporting Station
Haze Haze  
Wind Chill: 25°   Ceiling: 400
Heat Index: 31°   Visibility: 3mi
Dew Point: 31°   Wind: 6mph
Humidity: 100%   Direction: 170°S
Pressure: 30.19"   Gusts: NA
Location:  40.6052°N, 94.3576°W
Report Text: KLWD 200313Z AUTO 17005KT 3SM BR BKN004 OVC010 M01/M01 A3019 RMK AO2 SNE0258 CIG 003V007 P0000 T10061006
Loading
Personal Weather Stations






























Interactive Weather Map New forecast layout! Learn more

10-Day Weather Forecast

Advertisements
Track Severe Weather on mobile